Time;durP1;ratioP1;P1;durP2;ratioP2;P2;SDS_P1;SDS_P2;PMS_P1;PMS_P2;Temp;Humidity;BMP_temperature;BMP_pressure;BME280_temperature;BME280_humidity;BME280_pressure;Samples;Min_cycle;Max_cycle;Signal;HPM_P1;HPM_P2
2022/01/13 00:02:27;;;;;;;6.32;4.22;;;18.80;57.30;;;;;;10486138;28;20020;-55
2022/01/13 00:07:29;;;;;;;9.20;5.05;;;18.80;57.20;;;;;;10496356;28;20031;-55
2022/01/13 00:12:35;;;;;;;6.30;4.70;;;18.80;57.30;;;;;;10525277;28;20043;-55
2022/01/13 00:23:40;;;;;;;7.05;4.97;;;18.80;57.30;;;;;;10526219;28;20040;-55
2022/01/13 00:28:20;;;;;;;6.22;4.88;;;18.80;57.20;;;;;;10514212;28;20051;-56
2022/01/13 00:33:25;;;;;;;8.60;5.38;;;18.80;57.20;;;;;;10526032;28;20101;-54
2022/01/13 00:38:29;;;;;;;6.30;4.82;;;18.80;57.20;;;;;;10529237;28;20063;-55
2022/01/13 00:43:32;;;;;;;7.72;4.75;;;18.80;57.10;;;;;;10482841;28;20039;-56
2022/01/13 00:48:32;;;;;;;6.10;4.53;;;18.80;57.00;;;;;;10514015;28;20619;-55
2022/01/13 00:53:33;;;;;;;6.07;4.45;;;18.80;57.00;;;;;;10482194;28;20040;-56
2022/01/13 00:58:35;;;;;;;6.07;4.70;;;18.80;57.00;;;;;;10513823;28;20484;-55
2022/01/13 01:03:37;;;;;;;6.85;4.55;;;18.80;57.00;;;;;;10499579;28;20422;-56
2022/01/13 01:08:38;;;;;;;5.80;4.50;;;18.80;57.00;;;;;;10496442;28;20024;-56
2022/01/13 01:13:39;;;;;;;7.30;4.60;;;18.80;56.90;;;;;;10523185;28;20027;-56
2022/01/13 01:34:43;;;;;;;7.15;5.03;;;18.80;56.90;;;;;;10508484;28;20031;-54
2022/01/13 01:39:47;;;;;;;9.40;5.20;;;18.80;57.60;;;;;;10498385;28;20036;-55
2022/01/13 01:44:52;;;;;;;6.72;4.88;;;18.80;56.70;;;;;;10480598;28;20419;-56
2022/01/13 01:49:58;;;;;;;6.53;4.75;;;18.80;56.80;;;;;;10480663;28;20024;-56
2022/01/13 01:54:58;;;;;;;6.35;4.45;;;18.80;56.80;;;;;;10493760;28;20071;-55
2022/01/13 01:59:59;;;;;;;7.10;4.75;;;18.80;56.90;;;;;;10497619;28;20116;-56
2022/01/13 02:05:00;;;;;;;6.25;4.45;;;18.80;56.70;;;;;;10507288;28;20028;-55
2022/01/13 02:10:01;;;;;;;7.30;5.15;;;18.90;56.80;;;;;;10506037;28;20070;-56
2022/01/13 02:20:18;;;;;;;6.20;4.25;;;18.80;56.80;;;;;;10479659;28;20036;-56
2022/01/13 02:25:19;;;;;;;;;;;18.80;56.80;;;;;;10479438;28;20067;-56
2022/01/13 02:30:20;;;;;;;5.63;3.90;;;18.80;56.80;;;;;;10478720;28;20390;-56
2022/01/13 02:35:20;;;;;;;6.57;4.57;;;18.80;56.80;;;;;;10520401;28;20031;-56
2022/01/13 02:40:21;;;;;;;5.47;4.07;;;18.80;56.80;;;;;;10519810;28;20023;-56
2022/01/13 02:45:26;;;;;;;4.85;4.10;;;18.80;56.80;;;;;;10537361;28;20108;-56
2022/01/13 02:50:27;;;;;;;5.53;4.07;;;18.80;56.80;;;;;;10497082;28;20024;-55
2022/01/13 02:55:28;;;;;;;5.55;4.30;;;18.80;56.80;;;;;;10495951;28;20457;-56
2022/01/13 03:00:28;;;;;;;5.38;4.00;;;18.80;56.80;;;;;;10479844;28;20030;-56
2022/01/13 03:05:30;;;;;;;6.00;4.00;;;18.80;56.80;;;;;;10509212;28;20024;-56
2022/01/13 03:10:30;;;;;;;5.57;4.00;;;18.80;56.80;;;;;;10501133;28;20027;-56
2022/01/13 03:15:31;;;;;;;5.70;3.97;;;18.80;56.80;;;;;;10519570;28;20043;-55
2022/01/13 03:20:32;;;;;;;6.10;3.80;;;18.80;56.70;;;;;;10483618;28;20034;-56
2022/01/13 03:25:33;;;;;;;5.35;3.70;;;18.80;56.70;;;;;;10501310;28;20058;-56
2022/01/13 03:30:33;;;;;;;5.10;3.63;;;18.80;56.40;;;;;;10498444;28;20123;-55
2022/01/13 03:35:36;;;;;;;6.25;4.65;;;18.80;56.70;;;;;;10503224;28;20510;-56
2022/01/13 03:40:37;;;;;;;6.22;3.90;;;18.80;57.20;;;;;;10505139;28;20028;-55
2022/01/13 03:45:38;;;;;;;5.45;3.25;;;18.80;56.70;;;;;;10496920;28;20028;-56
2022/01/13 03:50:40;;;;;;;6.38;4.15;;;18.80;56.60;;;;;;10506783;28;20548;-55
2022/01/13 03:56:37;;;;;;;5.10;3.65;;;18.70;56.90;;;;;;10493920;28;20081;-55
2022/01/13 04:02:01;;;;;;;5.22;3.90;;;18.70;56.80;;;;;;10504206;28;20107;-55
2022/01/13 04:07:19;;;;;;;6.35;4.25;;;18.70;56.90;;;;;;10505585;28;20078;-56
2022/01/13 04:12:22;;;;;;;6.18;3.95;;;18.70;56.90;;;;;;10509712;28;20036;-55
2022/01/13 04:17:24;;;;;;;6.72;4.60;;;18.70;56.80;;;;;;10502557;28;20024;-56
2022/01/13 04:22:26;;;;;;;5.03;3.80;;;18.70;57.00;;;;;;10501543;28;20021;-56
2022/01/13 04:27:32;;;;;;;5.72;4.07;;;18.70;57.50;;;;;;10483244;28;20045;-55
2022/01/13 04:32:33;;;;;;;6.00;4.38;;;18.70;56.90;;;;;;10501581;28;20081;-56
2022/01/13 04:37:34;;;;;;;5.70;3.55;;;18.70;56.80;;;;;;10513776;28;20025;-55
2022/01/13 04:42:36;;;;;;;6.10;4.50;;;18.70;56.80;;;;;;10482659;28;20465;-56
2022/01/13 04:47:38;;;;;;;6.95;4.88;;;18.70;56.80;;;;;;10500728;28;20021;-56
2022/01/13 04:52:38;;;;;;;6.72;4.82;;;18.70;56.80;;;;;;10500979;28;20027;-55
2022/01/13 04:57:40;;;;;;;6.82;4.82;;;18.70;56.80;;;;;;10524288;28;20020;-55
2022/01/13 05:02:41;;;;;;;5.82;4.28;;;18.70;57.50;;;;;;10520579;28;20033;-55
2022/01/13 05:07:42;;;;;;;6.63;4.72;;;18.70;56.90;;;;;;10502353;28;20035;-55
2022/01/13 05:12:48;;;;;;;6.88;4.25;;;18.70;56.90;;;;;;10505449;28;20428;-54
2022/01/13 05:18:07;;;;;;;6.65;4.57;;;18.70;56.90;;;;;;10505952;28;20077;-60
2022/01/13 05:23:10;;;;;;;6.85;4.68;;;18.80;56.80;;;;;;10506715;28;20024;-56
2022/01/13 05:28:12;;;;;;;6.32;4.55;;;18.80;56.40;;;;;;10502621;28;20416;-56
2022/01/13 05:33:13;;;;;;;6.97;5.20;;;18.90;56.40;;;;;;10505799;28;20381;-56
2022/01/13 05:38:14;;;;;;;6.80;5.05;;;18.80;56.60;;;;;;10480827;28;20074;-56
2022/01/13 05:43:14;;;;;;;6.50;4.90;;;18.80;56.50;;;;;;10498132;28;20116;-54
2022/01/13 05:48:15;;;;;;;6.82;4.88;;;18.80;56.60;;;;;;10498031;28;20103;-56
2022/01/13 05:53:16;;;;;;;7.43;5.32;;;18.80;56.60;;;;;;10516264;28;20047;-54
2022/01/13 05:58:17;;;;;;;7.25;5.65;;;18.80;56.80;;;;;;10481834;28;20103;-57
2022/01/13 06:03:17;;;;;;;9.35;6.43;;;18.90;57.20;;;;;;10479246;28;20135;-55
2022/01/13 06:08:18;;;;;;;10.77;6.40;;;18.90;58.20;;;;;;10512425;28;20036;-54
2022/01/13 06:13:19;;;;;;;11.73;6.45;;;18.80;59.90;;;;;;10472106;28;20039;-55
2022/01/13 06:18:19;;;;;;;10.68;6.00;;;18.90;60.40;;;;;;10476428;28;20081;-55
2022/01/13 06:23:20;;;;;;;10.55;6.30;;;18.80;60.40;;;;;;10495067;28;20074;-56
2022/01/13 06:28:21;;;;;;;8.88;5.15;;;18.70;61.30;;;;;;10476356;28;20203;-53
2022/01/13 06:33:21;;;;;;;11.80;6.85;;;18.70;61.10;;;;;;10502873;28;20122;-56
2022/01/13 06:38:23;;;;;;;10.32;6.35;;;18.60;60.90;;;;;;10531485;28;20127;-53
2022/01/13 06:43:24;;;;;;;9.05;6.90;;;18.60;61.10;;;;;;10500298;28;20427;-54
2022/01/13 06:48:24;;;;;;;16.02;5.82;;;18.50;60.90;;;;;;10500041;28;20070;-54
2022/01/13 06:53:25;;;;;;;22.42;7.20;;;18.50;60.60;;;;;;10478908;28;20037;-56
2022/01/13 06:58:27;;;;;;;15.82;6.57;;;18.50;61.10;;;;;;10495940;28;20041;-55
2022/01/13 07:03:27;;;;;;;17.05;7.03;;;18.50;60.40;;;;;;10512172;28;20127;-56
2022/01/13 07:08:28;;;;;;;17.65;6.47;;;18.50;60.40;;;;;;10479707;28;20481;-53
2022/01/13 07:13:31;;;;;;;14.20;6.97;;;18.50;60.00;;;;;;10475683;28;20033;-55
2022/01/13 07:18:38;;;;;;;10.90;6.57;;;18.50;59.80;;;;;;10489494;28;20123;-55
2022/01/13 07:23:39;;;;;;;12.55;6.80;;;18.50;59.70;;;;;;10500686;28;20554;-54
2022/01/13 07:28:40;;;;;;;9.38;6.32;;;18.50;59.80;;;;;;10471350;28;20109;-54
2022/01/13 07:33:42;;;;;;;9.98;6.47;;;18.60;59.30;;;;;;10499061;28;20032;-55
2022/01/13 07:38:43;;;;;;;10.40;6.10;;;18.50;59.10;;;;;;10502165;28;20792;-55
2022/01/13 07:43:48;;;;;;;10.45;6.63;;;18.60;58.90;;;;;;10522196;28;20063;-55
2022/01/13 07:48:50;;;;;;;12.38;6.55;;;18.60;58.50;;;;;;10512944;28;20020;-55
2022/01/13 07:53:50;;;;;;;9.18;6.00;;;18.60;58.50;;;;;;10478966;28;20384;-54
2022/01/13 07:58:51;;;;;;;10.93;6.60;;;18.70;58.20;;;;;;10498408;28;20043;-57
2022/01/13 08:03:52;;;;;;;8.18;5.78;;;18.60;58.30;;;;;;10481809;28;20120;-57
2022/01/13 08:08:53;;;;;;;10.95;5.97;;;18.60;58.30;;;;;;10506162;28;20035;-56
2022/01/13 08:13:53;;;;;;;9.68;6.78;;;18.50;58.30;;;;;;10529201;28;20086;-56
2022/01/13 08:24:13;;;;;;;7.90;5.53;;;18.60;58.40;;;;;;10511211;28;20548;-56
2022/01/13 08:29:14;;;;;;;9.15;6.13;;;18.50;58.20;;;;;;10508458;28;20119;-56
2022/01/13 08:34:16;;;;;;;8.82;5.95;;;18.50;58.40;;;;;;10507319;28;20037;-55
2022/01/13 08:39:16;;;;;;;8.93;5.97;;;18.50;58.40;;;;;;10496159;28;20036;-54
2022/01/13 08:44:17;;;;;;;8.32;5.45;;;18.50;58.30;;;;;;10520445;28;20362;-55
2022/01/13 08:49:18;;;;;;;8.18;5.53;;;18.50;58.30;;;;;;10475423;28;20393;-55
2022/01/13 08:54:21;;;;;;;8.23;6.07;;;18.50;58.30;;;;;;10509077;28;20446;-55
2022/01/13 08:59:21;;;;;;;7.75;5.18;;;18.50;58.30;;;;;;10519314;28;20497;-55
2022/01/13 09:04:22;;;;;;;6.45;4.50;;;18.50;58.00;;;;;;10503969;28;20123;-56
2022/01/13 09:09:23;;;;;;;9.35;5.30;;;18.60;57.90;;;;;;10524963;28;20024;-55
2022/01/13 09:14:26;;;;;;;6.47;5.22;;;18.70;58.00;;;;;;10507696;28;20089;-55
2022/01/13 09:19:27;;;;;;;8.02;5.90;;;18.60;57.80;;;;;;10504175;28;20029;-55
2022/01/13 09:24:28;;;;;;;8.52;5.57;;;18.50;57.90;;;;;;10480347;28;20160;-55
2022/01/13 09:29:29;;;;;;;6.95;5.38;;;18.50;57.90;;;;;;10508630;28;20169;-54
2022/01/13 09:34:30;;;;;;;8.27;5.15;;;18.50;57.80;;;;;;10511750;28;20052;-55
2022/01/13 09:39:31;;;;;;;7.80;5.53;;;18.50;57.90;;;;;;10517973;28;20032;-53
2022/01/13 09:44:32;;;;;;;8.27;5.93;;;18.40;57.80;;;;;;10479448;28;20151;-56
2022/01/13 09:49:34;;;;;;;6.88;5.18;;;18.50;57.90;;;;;;10479468;28;20035;-55
2022/01/13 09:54:35;;;;;;;6.07;4.60;;;18.50;57.90;;;;;;10479331;28;20483;-55
2022/01/13 09:59:36;;;;;;;7.55;5.15;;;18.50;57.90;;;;;;10479152;28;20036;-56
2022/01/13 10:04:53;;;;;;;7.65;5.32;;;18.40;57.80;;;;;;10496426;28;20032;-52
2022/01/13 10:09:56;;;;;;;6.10;4.53;;;18.60;57.60;;;;;;10503408;28;20031;-54
2022/01/13 10:20:12;;;;;;;5.80;4.65;;;18.60;57.30;;;;;;10538452;28;20089;-55
2022/01/13 10:25:32;;;;;;;6.35;4.50;;;18.60;57.30;;;;;;10526772;28;20020;-54
2022/01/13 10:30:37;;;;;;;7.25;5.45;;;18.60;57.30;;;;;;10512695;28;20036;-55
2022/01/13 10:35:38;;;;;;;5.70;4.20;;;18.50;57.50;;;;;;10507392;28;20020;-55
2022/01/13 10:40:41;;;;;;;7.07;5.25;;;18.60;57.40;;;;;;10477451;28;20376;-54
2022/01/13 10:45:57;;;;;;;6.60;4.57;;;18.50;57.40;;;;;;10495504;28;20037;-56
2022/01/13 10:51:05;;;;;;;5.20;3.80;;;18.50;57.40;;;;;;10478856;28;20025;-56
2022/01/13 10:56:09;;;;;;;5.57;4.20;;;18.60;57.30;;;;;;10478372;28;20120;-54
2022/01/13 11:01:14;;;;;;;6.28;4.93;;;18.60;57.30;;;;;;10505845;28;20032;-55
2022/01/13 11:06:15;;;;;;;6.13;4.38;;;18.60;57.40;;;;;;10527705;28;20028;-55
2022/01/13 11:11:28;;;;;;;5.82;3.88;;;18.50;57.20;;;;;;10540958;28;20163;-55
2022/01/13 11:16:30;;;;;;;5.38;4.18;;;18.50;57.30;;;;;;10540594;28;20481;-55
2022/01/13 11:21:31;;;;;;;5.35;4.43;;;18.50;57.20;;;;;;10523413;28;20032;-55
2022/01/13 11:26:33;;;;;;;5.40;4.13;;;18.50;57.20;;;;;;10510138;28;20416;-55
2022/01/13 11:31:34;;;;;;;4.75;3.60;;;18.50;57.20;;;;;;10514256;28;20047;-56
2022/01/13 11:36:35;;;;;;;6.82;4.57;;;18.50;57.30;;;;;;10514691;28;20341;-55
2022/01/13 11:42:04;;;;;;;5.93;4.00;;;18.50;57.20;;;;;;10541017;28;20024;-56
2022/01/13 11:47:26;;;;;;;5.15;3.65;;;18.50;57.20;;;;;;10497427;28;20032;-55
2022/01/13 11:52:44;;;;;;;5.78;4.53;;;18.50;57.20;;;;;;10501243;28;20049;-54
2022/01/13 11:57:44;;;;;;;6.50;4.10;;;18.60;57.20;;;;;;10494122;28;20222;-55
2022/01/13 12:02:45;;;;;;;5.70;3.95;;;18.60;57.20;;;;;;10498691;28;20566;-55
2022/01/13 12:07:58;;;;;;;5.38;4.03;;;18.60;57.80;;;;;;10529451;28;20077;-54
2022/01/13 12:12:59;;;;;;;5.63;4.07;;;18.50;57.10;;;;;;10531808;28;20066;-55
2022/01/13 12:18:04;;;;;;;5.63;3.58;;;18.60;57.00;;;;;;10515539;28;20562;-55
2022/01/13 12:23:39;;;;;;;6.55;4.18;;;18.50;57.20;;;;;;10505740;28;20044;-56
2022/01/13 12:28:40;;;;;;;4.97;3.45;;;18.60;57.10;;;;;;10518369;28;20036;-54
2022/01/13 12:33:41;;;;;;;5.97;4.30;;;18.50;57.20;;;;;;10473271;28;20036;-53
2022/01/13 12:38:58;;;;;;;5.35;3.83;;;18.60;57.20;;;;;;10497671;28;20048;-54
2022/01/13 12:44:20;;;;;;;5.88;3.88;;;18.60;57.20;;;;;;10492558;28;20492;-56
2022/01/13 12:49:21;;;;;;;4.63;3.20;;;18.50;57.20;;;;;;10505837;28;20408;-55
2022/01/13 12:54:22;;;;;;;4.85;3.45;;;18.60;57.00;;;;;;10507020;28;20099;-56
2022/01/13 12:59:23;;;;;;;4.75;3.40;;;18.60;56.90;;;;;;10527140;28;20110;-55
2022/01/13 13:04:23;;;;;;;5.40;4.15;;;18.60;57.00;;;;;;10525349;28;20029;-54
2022/01/13 13:09:27;;;;;;;5.55;4.13;;;18.60;57.00;;;;;;10502008;28;20092;-54
2022/01/13 13:19:59;;;;;;;5.65;3.63;;;18.60;57.00;;;;;;10523692;28;20048;-55
2022/01/13 13:25:00;;;;;;;5.10;3.50;;;18.60;57.00;;;;;;10509203;28;20035;-52
2022/01/13 13:30:01;;;;;;;4.55;3.75;;;18.50;57.10;;;;;;10459973;28;20053;-55
2022/01/13 13:35:10;;;;;;;5.82;4.05;;;18.50;57.10;;;;;;10447534;28;20116;-55
2022/01/13 13:40:31;;;;;;;4.95;3.88;;;18.50;57.10;;;;;;10441879;28;20449;-56
2022/01/13 13:45:32;;;;;;;5.00;3.45;;;18.60;57.10;;;;;;10427290;28;20043;-54
2022/01/13 13:50:34;;;;;;;4.40;3.33;;;18.60;56.90;;;;;;10447157;28;20032;-55
2022/01/13 13:55:36;;;;;;;4.20;3.15;;;18.50;56.90;;;;;;10434524;28;20033;-55
2022/01/13 14:00:37;;;;;;;5.65;4.18;;;18.70;56.60;;;;;;10418850;28;20489;-56
2022/01/13 14:05:39;;;;;;;6.45;4.28;;;18.70;56.30;;;;;;10414687;28;20025;-55
2022/01/13 14:10:39;;;;;;;4.85;3.55;;;18.70;56.40;;;;;;10436145;28;20024;-55
2022/01/13 14:15:43;;;;;;;5.40;3.60;;;18.60;56.60;;;;;;10442628;28;20029;-55
2022/01/13 14:20:49;;;;;;;5.20;3.83;;;18.60;56.50;;;;;;10452455;28;20086;-55
2022/01/13 14:26:00;;;;;;;5.47;3.72;;;18.60;56.50;;;;;;10454858;28;20134;-55
2022/01/13 14:31:09;;;;;;;5.05;3.58;;;18.60;56.30;;;;;;10453216;28;20147;-56
2022/01/13 14:36:09;;;;;;;6.75;4.18;;;18.70;56.50;;;;;;10446392;28;20038;-55
2022/01/13 14:41:14;;;;;;;5.40;4.30;;;18.60;56.50;;;;;;10412373;28;20036;-54
2022/01/13 14:46:15;;;;;;;5.13;3.75;;;18.60;56.40;;;;;;10413391;28;20033;-57
2022/01/13 14:51:20;;;;;;;5.30;3.60;;;18.60;56.40;;;;;;10413033;28;20104;-55
2022/01/13 14:56:21;;;;;;;5.68;4.20;;;18.60;56.50;;;;;;10411372;28;20026;-55
2022/01/13 15:01:22;;;;;;;4.45;3.05;;;18.60;56.60;;;;;;10411413;28;20026;-56
2022/01/13 15:06:23;;;;;;;5.40;3.60;;;18.60;56.40;;;;;;10412758;28;20035;-56
2022/01/13 15:11:24;;;;;;;5.70;4.47;;;18.60;56.50;;;;;;10448528;28;20048;-54
2022/01/13 15:16:25;;;;;;;4.13;3.40;;;18.60;56.30;;;;;;10412420;28;20437;-55
2022/01/13 15:21:28;;;;;;;4.22;3.28;;;18.60;56.50;;;;;;10410889;28;20029;-55
2022/01/13 15:26:29;;;;;;;6.05;3.90;;;18.60;56.40;;;;;;10410963;28;20033;-55
2022/01/13 15:31:31;;;;;;;4.65;3.78;;;18.60;56.40;;;;;;10427259;28;20052;-55
2022/01/13 15:36:31;;;;;;;4.90;3.85;;;18.60;56.30;;;;;;10410991;28;20052;-55
2022/01/13 15:41:32;;;;;;;4.97;3.72;;;18.60;56.40;;;;;;10425366;28;20109;-55
2022/01/13 15:46:33;;;;;;;4.55;3.25;;;18.60;56.30;;;;;;10410463;28;20033;-55
2022/01/13 15:51:35;;;;;;;5.00;3.50;;;18.60;56.40;;;;;;10413421;28;20036;-55
2022/01/13 15:56:35;;;;;;;5.20;3.65;;;18.70;56.30;;;;;;10417652;28;20029;-55
2022/01/13 16:01:36;;;;;;;4.38;3.30;;;18.60;56.50;;;;;;10430488;28;20525;-54
2022/01/13 16:06:37;;;;;;;4.75;3.42;;;18.70;56.30;;;;;;10432013;28;20546;-55
2022/01/13 16:11:37;;;;;;;4.90;3.30;;;18.60;56.40;;;;;;10444090;28;20032;-55
2022/01/13 16:16:38;;;;;;;5.10;3.80;;;18.60;56.30;;;;;;10452198;28;20029;-55
2022/01/13 16:21:39;;;;;;;4.40;3.40;;;18.60;56.30;;;;;;10458492;28;20112;-55
2022/01/13 16:26:40;;;;;;;6.43;3.67;;;18.60;56.30;;;;;;10446013;28;20036;-56
2022/01/13 16:31:41;;;;;;;4.47;2.90;;;18.60;56.30;;;;;;10448378;28;20045;-54
2022/01/13 16:36:42;;;;;;;5.57;4.15;;;18.60;56.30;;;;;;10444637;28;20037;-58
2022/01/13 16:41:42;;;;;;;4.93;3.10;;;18.50;57.00;;;;;;10435431;28;20028;-53
2022/01/13 16:46:43;;;;;;;5.63;3.83;;;18.50;56.60;;;;;;10443083;28;20033;-54
2022/01/13 16:51:44;;;;;;;7.40;3.65;;;18.60;56.30;;;;;;10430817;28;20060;-54
2022/01/13 16:56:45;;;;;;;4.47;3.15;;;18.70;56.10;;;;;;10437727;28;20504;-54
2022/01/13 17:01:46;;;;;;;4.78;3.05;;;18.70;56.00;;;;;;10427908;28;20557;-54
2022/01/13 17:06:46;;;;;;;7.15;4.10;;;18.70;55.90;;;;;;10422268;28;20108;-54
2022/01/13 17:11:49;;;;;;;6.68;4.82;;;18.60;55.90;;;;;;10444780;28;20047;-55
2022/01/13 17:16:49;;;;;;;7.32;4.40;;;18.70;56.00;;;;;;10449651;28;20359;-54
2022/01/13 17:21:50;;;;;;;11.32;6.07;;;18.70;56.10;;;;;;10415393;28;20025;-55
2022/01/13 17:26:52;;;;;;;8.40;5.53;;;18.70;59.20;;;;;;10454410;28;20033;-54
2022/01/13 17:31:53;;;;;;;10.82;6.80;;;19.00;60.00;;;;;;10439020;28;20547;-54
2022/01/13 17:36:54;;;;;;;12.77;5.93;;;19.10;59.50;;;;;;10429383;28;20042;-55
2022/01/13 17:41:54;;;;;;;11.77;4.88;;;19.10;59.30;;;;;;10414791;28;20025;-55
2022/01/13 17:46:57;;;;;;;17.83;6.20;;;19.00;59.60;;;;;;10432745;28;20033;-54
2022/01/13 17:51:58;;;;;;;11.25;4.93;;;18.90;58.70;;;;;;10434867;28;20556;-54
2022/01/13 17:56:59;;;;;;;17.98;5.35;;;18.70;58.90;;;;;;10428987;28;20059;-55
2022/01/13 18:02:00;;;;;;;10.77;5.25;;;18.60;58.80;;;;;;10433358;28;20094;-55
2022/01/13 18:07:02;;;;;;;9.70;4.88;;;18.60;58.60;;;;;;10422911;28;20037;-55
2022/01/13 18:12:08;;;;;;;11.93;4.47;;;18.60;58.30;;;;;;10440940;28;20021;-52
2022/01/13 18:17:09;;;;;;;7.20;4.63;;;18.60;58.30;;;;;;10436737;28;20406;-54
2022/01/13 18:22:10;;;;;;;12.10;4.82;;;18.60;58.80;;;;;;10439739;28;20036;-53
2022/01/13 18:27:11;;;;;;;16.65;5.10;;;18.60;58.60;;;;;;10443740;28;20028;-51
2022/01/13 18:32:13;;;;;;;9.95;5.03;;;18.60;58.40;;;;;;10506061;28;20380;-55
2022/01/13 18:37:15;;;;;;;9.25;4.90;;;18.70;58.20;;;;;;10502003;28;20033;-54
2022/01/13 18:42:18;;;;;;;8.25;4.63;;;18.80;57.90;;;;;;10509929;28;20437;-53
2022/01/13 18:47:19;;;;;;;5.47;3.65;;;18.70;57.80;;;;;;10516189;28;20055;-54
2022/01/13 18:52:20;;;;;;;10.35;5.35;;;18.70;58.00;;;;;;10503890;28;20480;-54
2022/01/13 18:57:20;;;;;;;7.72;4.80;;;18.60;58.10;;;;;;10496387;28;20044;-55
2022/01/13 19:02:22;;;;;;;6.18;3.75;;;18.60;58.60;;;;;;10523071;28;20032;-53
2022/01/13 19:07:24;;;;;;;7.03;3.97;;;18.60;58.50;;;;;;10498167;28;20028;-53
2022/01/13 19:12:25;;;;;;;6.00;4.32;;;18.60;58.10;;;;;;10524413;28;20029;-53
2022/01/13 19:17:43;;;;;;;5.35;4.03;;;18.60;58.00;;;;;;10503603;28;20032;-54
2022/01/13 19:22:49;;;;;;;6.55;4.15;;;18.60;57.90;;;;;;10519251;28;20086;-53
2022/01/13 19:27:50;;;;;;;5.53;4.15;;;18.60;57.80;;;;;;10483025;28;20055;-53
2022/01/13 19:32:56;;;;;;;7.63;4.53;;;18.70;57.80;;;;;;10531481;28;20456;-54
2022/01/13 19:37:57;;;;;;;7.45;4.35;;;18.60;57.70;;;;;;10517191;28;20024;-54
2022/01/13 19:42:58;;;;;;;6.65;4.30;;;18.60;57.60;;;;;;10485863;28;20074;-53
2022/01/13 19:47:59;;;;;;;6.03;4.30;;;18.60;58.20;;;;;;10526534;28;20107;-54
2022/01/13 19:53:11;;;;;;;6.00;4.15;;;18.70;58.20;;;;;;10518565;28;20551;-53
2022/01/13 19:58:12;;;;;;;5.82;4.05;;;18.80;58.40;;;;;;10513744;28;20028;-53
2022/01/13 20:03:13;;;;;;;6.43;4.05;;;18.70;58.50;;;;;;10501269;28;20040;-54
2022/01/13 20:08:16;;;;;;;5.93;3.75;;;18.60;58.70;;;;;;10526093;28;20016;-53
2022/01/13 20:13:17;;;;;;;5.88;4.50;;;18.60;58.70;;;;;;10495183;28;20032;-54
2022/01/13 20:18:18;;;;;;;8.20;4.68;;;18.50;58.90;;;;;;10525822;28;20051;-52
2022/01/13 20:23:21;;;;;;;5.80;3.92;;;18.40;59.20;;;;;;10526077;28;20028;-56
2022/01/13 20:28:22;;;;;;;8.10;4.38;;;18.30;59.30;;;;;;10505146;28;20029;-53
2022/01/13 20:33:23;;;;;;;5.80;3.95;;;18.30;59.20;;;;;;10523265;28;20032;-54
2022/01/13 20:38:24;;;;;;;5.78;4.10;;;18.40;58.80;;;;;;10496318;28;20044;-53
2022/01/13 20:43:25;;;;;;;5.68;3.85;;;18.60;58.40;;;;;;10498366;28;20037;-54
2022/01/13 20:48:25;;;;;;;8.50;4.25;;;18.70;58.00;;;;;;10476387;28;20025;-54
2022/01/13 20:53:26;;;;;;;5.47;3.95;;;18.80;57.60;;;;;;10476532;28;20562;-54
2022/01/13 20:58:27;;;;;;;5.90;3.70;;;18.80;57.40;;;;;;10480678;28;20392;-55
2022/01/13 21:03:28;;;;;;;4.43;3.70;;;18.80;57.50;;;;;;10516034;28;20033;-54
2022/01/13 21:08:32;;;;;;;4.53;3.22;;;18.70;57.70;;;;;;10504028;28;20111;-54
2022/01/13 21:13:37;;;;;;;6.25;4.05;;;18.70;57.50;;;;;;10499495;28;20427;-54
2022/01/13 21:18:39;;;;;;;5.55;4.20;;;18.70;57.60;;;;;;10502293;28;20116;-54
2022/01/13 21:23:40;;;;;;;5.75;4.25;;;18.70;57.40;;;;;;10479571;28;20033;-52
2022/01/13 21:28:41;;;;;;;4.63;3.38;;;18.70;57.40;;;;;;10477469;28;20070;-53
2022/01/13 21:33:43;;;;;;;5.13;3.72;;;18.70;57.30;;;;;;10504403;28;20054;-54
2022/01/13 21:38:45;;;;;;;5.03;3.95;;;18.70;57.40;;;;;;10496479;28;20024;-54
2022/01/13 21:43:45;;;;;;;5.22;3.95;;;18.70;57.30;;;;;;10496188;28;20133;-55
2022/01/13 21:48:47;;;;;;;5.57;3.88;;;18.70;57.20;;;;;;10499183;28;20555;-53
2022/01/13 21:53:48;;;;;;;5.22;3.40;;;18.80;57.10;;;;;;10518492;28;20020;-55
2022/01/13 21:58:49;;;;;;;4.85;3.70;;;18.70;57.20;;;;;;10495929;28;20024;-54
2022/01/13 22:03:50;;;;;;;6.18;3.80;;;18.60;57.40;;;;;;10489360;28;20033;-54
2022/01/13 22:13:51;;;;;;;5.18;4.10;;;18.60;57.30;;;;;;10498084;28;20036;-53
2022/01/13 22:18:52;;;;;;;5.72;4.13;;;18.70;57.40;;;;;;10477038;28;20041;-54
2022/01/13 22:23:54;;;;;;;5.28;3.63;;;18.70;57.20;;;;;;10486658;28;20158;-54
2022/01/13 22:28:54;;;;;;;5.00;4.05;;;18.70;57.20;;;;;;10473079;28;20060;-54
2022/01/13 22:33:55;;;;;;;5.07;3.78;;;18.70;57.20;;;;;;10476779;28;20064;-54
2022/01/13 22:38:56;;;;;;;5.32;4.50;;;18.70;57.20;;;;;;10476823;28;20032;-54
2022/01/13 22:43:56;;;;;;;4.13;3.63;;;18.70;57.20;;;;;;10476583;28;20384;-54
2022/01/13 22:48:57;;;;;;;5.82;4.38;;;18.70;57.10;;;;;;10493992;28;20548;-55
2022/01/13 22:53:58;;;;;;;4.65;3.22;;;18.70;57.20;;;;;;10494399;28;20071;-54
2022/01/13 22:58:59;;;;;;;4.93;4.20;;;18.70;57.10;;;;;;10493453;28;20506;-54
2022/01/13 23:03:59;;;;;;;4.60;3.53;;;18.60;57.10;;;;;;10495465;28;20370;-54
2022/01/13 23:09:00;;;;;;;5.35;3.50;;;18.70;57.10;;;;;;10516853;28;20028;-54
2022/01/13 23:14:09;;;;;;;5.15;3.92;;;18.70;57.10;;;;;;10522544;28;20029;-54
2022/01/13 23:24:28;;;;;;;5.77;3.90;;;18.70;56.90;;;;;;10493301;28;20491;-54
2022/01/13 23:29:30;;;;;;;4.78;3.70;;;18.70;56.90;;;;;;10493351;28;20127;-54
2022/01/13 23:34:31;;;;;;;5.68;4.03;;;18.70;57.00;;;;;;10509261;28;20589;-53
2022/01/13 23:39:32;;;;;;;5.00;3.75;;;18.70;57.00;;;;;;10472838;28;20158;-54
2022/01/13 23:44:38;;;;;;;4.78;3.75;;;18.70;56.90;;;;;;10493429;28;20044;-54
2022/01/13 23:49:46;;;;;;;4.55;3.55;;;18.70;57.00;;;;;;10478076;28;20035;-54
2022/01/13 23:54:47;;;;;;;5.00;3.60;;;18.70;56.90;;;;;;10489532;28;20032;-54
2022/01/13 23:59:50;;;;;;;4.05;3.15;;;18.60;56.90;;;;;;10492949;28;20488;-54
